createdAt,value
2022-12-03T00:00:55.894Z,87.75
2022-12-03T00:04:33.620Z,87.78
2022-12-03T00:08:30.109Z,88.09
2022-12-03T00:11:51.688Z,88.06
2022-12-03T00:15:29.390Z,88.26
2022-12-03T00:19:07.763Z,88.63
2022-12-03T00:22:44.908Z,88.70
2022-12-03T00:26:22.282Z,88.52
2022-12-03T00:29:59.856Z,88.70
2022-12-03T00:33:37.705Z,88.67
2022-12-03T00:37:15.271Z,88.52
2022-12-03T00:41:12.371Z,88.46
2022-12-03T00:44:34.117Z,88.33
2022-12-03T00:48:30.683Z,88.39
2022-12-03T00:52:11.414Z,88.25
2022-12-03T00:55:33.290Z,88.53
2022-12-03T00:59:10.699Z,89.04
2022-12-03T01:02:48.569Z,89.04
2022-12-03T01:06:26.047Z,88.87
2022-12-03T01:10:04.920Z,88.66
2022-12-03T01:13:41.367Z,88.26
2022-12-03T01:17:38.246Z,88.13
2022-12-03T01:21:00.085Z,88.16
2022-12-03T01:24:37.968Z,88.37
2022-12-03T01:28:15.319Z,88.59
2022-12-03T01:32:12.023Z,88.54
2022-12-03T01:35:34.310Z,88.11
2022-12-03T01:39:12.128Z,88.19
2022-12-03T01:42:49.714Z,88.18
2022-12-03T01:46:38.026Z,88.11
2022-12-03T01:50:15.472Z,88.15
2022-12-03T01:54:02.676Z,88.09
2022-12-03T01:57:27.428Z,87.91
2022-12-03T02:01:06.358Z,87.93
2022-12-03T02:05:00.361Z,87.88
2022-12-03T02:08:41.147Z,88.07
2022-12-03T02:12:02.799Z,88.35
2022-12-03T02:15:40.984Z,88.89
2022-12-03T02:19:27.399Z,88.92
2022-12-03T02:23:09.414Z,88.82
2022-12-03T02:26:33.466Z,88.69
2022-12-03T02:30:31.403Z,88.52
2022-12-03T02:33:52.935Z,88.49
2022-12-03T02:37:55.381Z,88.35
2022-12-03T02:41:39.338Z,88.39
2022-12-03T02:45:19.522Z,88.19
2022-12-03T02:48:41.845Z,88.54
2022-12-03T02:52:20.329Z,88.53
2022-12-03T02:56:20.207Z,88.62
2022-12-03T02:59:42.213Z,88.94
2022-12-03T03:03:21.050Z,89.08
2022-12-03T03:07:16.428Z,88.97
2022-12-03T03:11:00.350Z,88.85
2022-12-03T03:14:40.705Z,88.80
2022-12-03T03:18:02.213Z,88.77
2022-12-03T03:21:39.912Z,88.54
2022-12-03T03:25:21.148Z,88.41
2022-12-03T03:28:55.424Z,88.16
2022-12-03T03:32:34.247Z,88.53
2022-12-03T03:36:30.678Z,88.53
2022-12-03T03:40:11.457Z,88.77
2022-12-03T03:43:52.466Z,88.99
2022-12-03T03:47:14.879Z,89.03
2022-12-03T03:50:52.389Z,89.15
2022-12-03T03:54:29.615Z,89.31
2022-12-03T03:58:07.275Z,88.95
2022-12-03T04:02:03.450Z,88.93
2022-12-03T04:05:44.144Z,88.81
2022-12-03T04:09:05.823Z,88.69
2022-12-03T04:26:55.209Z,89.65
2022-12-03T04:30:17.111Z,89.52
2022-12-03T04:34:32.275Z,89.32
2022-12-03T04:38:15.218Z,89.21
2022-12-03T04:41:36.944Z,89.06
2022-12-03T04:45:33.663Z,88.99
2022-12-03T04:49:14.482Z,89.09
2022-12-03T04:52:54.942Z,89.37
2022-12-03T04:56:17.067Z,89.62
2022-12-03T04:59:54.931Z,89.55
2022-12-03T05:03:32.480Z,89.39
2022-12-03T05:07:10.269Z,89.12
2022-12-03T05:10:47.786Z,88.98
2022-12-03T05:14:25.591Z,88.89
2022-12-03T05:18:03.209Z,88.80
2022-12-03T05:21:40.861Z,88.80
2022-12-03T05:25:18.547Z,88.72
2022-12-03T05:28:56.291Z,88.78
2022-12-03T05:32:33.863Z,89.16
2022-12-03T05:36:12.104Z,89.37
2022-12-03T05:39:49.163Z,89.50
2022-12-03T05:43:27.212Z,89.78
2022-12-03T05:47:23.344Z,89.52
2022-12-03T05:50:46.809Z,89.42
2022-12-03T05:54:22.513Z,89.37
2022-12-03T05:58:19.228Z,89.22
2022-12-03T06:01:41.931Z,89.12
2022-12-03T06:05:37.786Z,89.20
2022-12-03T06:09:18.407Z,89.46
2022-12-03T06:12:40.637Z,89.71
2022-12-03T06:16:17.454Z,89.95
2022-12-03T06:20:16.953Z,90.13
2022-12-03T06:23:44.667Z,90.24
2022-12-03T06:27:35.259Z,90.08
2022-12-03T06:31:15.897Z,89.89
2022-12-03T06:34:38.339Z,89.83
2022-12-03T06:38:15.474Z,89.71
2022-12-03T06:41:53.352Z,89.73
2022-12-03T06:45:49.802Z,90.01
2022-12-03T06:49:30.263Z,90.11
2022-12-03T06:52:51.776Z,90.40
2022-12-03T06:56:35.006Z,90.51
2022-12-03T07:00:09.274Z,90.53
2022-12-03T07:03:44.839Z,90.38
2022-12-03T07:07:41.301Z,90.55
2022-12-03T07:11:30.691Z,90.41
2022-12-03T07:14:52.482Z,90.39
2022-12-03T07:18:29.946Z,90.51
2022-12-03T07:22:07.608Z,90.84
2022-12-03T07:26:04.406Z,91.09
2022-12-03T07:29:26.563Z,91.18
2022-12-03T07:33:04.423Z,91.49
2022-12-03T07:37:00.742Z,91.40
2022-12-03T07:40:22.543Z,91.26
2022-12-03T07:44:00.158Z,91.10
2022-12-03T07:47:56.828Z,90.91
2022-12-03T07:51:18.844Z,90.91
2022-12-03T07:55:15.615Z,90.76
2022-12-03T07:58:56.292Z,90.51
2022-12-03T08:02:36.858Z,90.46
2022-12-03T08:05:58.946Z,90.45
2022-12-03T08:09:39.974Z,90.76
2022-12-03T08:13:17.172Z,91.09
2022-12-03T08:16:52.216Z,90.76
2022-12-03T08:20:35.014Z,90.72
2022-12-03T08:24:26.401Z,90.58
2022-12-03T08:28:13.598Z,90.64
2022-12-03T08:31:35.428Z,90.44
2022-12-03T08:35:21.543Z,90.41
2022-12-03T08:39:30.483Z,90.29
2022-12-03T08:46:31.951Z,90.66
2022-12-03T08:50:31.386Z,90.82
2022-12-03T08:54:09.993Z,91.09
2022-12-03T08:57:36.561Z,91.08
2022-12-03T09:01:36.436Z,91.05
2022-12-03T09:05:24.975Z,90.78
2022-12-03T09:08:47.617Z,90.18
2022-12-03T09:12:24.546Z,90.07
2022-12-03T09:16:21.417Z,90.45
2022-12-03T09:19:46.191Z,90.83
2022-12-03T09:23:39.462Z,90.87
2022-12-03T09:27:03.609Z,90.59
2022-12-03T09:30:38.939Z,90.81
2022-12-03T09:34:16.622Z,90.62
2022-12-03T09:37:54.415Z,90.65
2022-12-03T09:41:50.918Z,90.32
2022-12-03T09:45:14.686Z,90.08
2022-12-03T09:48:50.474Z,90.04
2022-12-03T09:52:49.347Z,90.32
2022-12-03T09:56:23.391Z,90.69
2022-12-03T09:59:49.604Z,90.91
2022-12-03T10:03:30.528Z,91.07
2022-12-03T10:07:24.587Z,90.88
2022-12-03T10:11:05.469Z,90.76
2022-12-03T10:14:46.242Z,90.42
2022-12-03T10:18:31.020Z,90.01
2022-12-03T10:22:12.510Z,89.80
2022-12-03T10:26:02.456Z,90.02
2022-12-03T10:29:42.268Z,90.39
2022-12-03T10:33:37.389Z,90.90
2022-12-03T10:37:31.275Z,91.16
2022-12-03T10:40:55.091Z,91.22
2022-12-03T10:44:31.889Z,91.06
2022-12-03T10:48:28.722Z,90.72
2022-12-03T10:52:25.713Z,90.37
2022-12-03T10:56:14.162Z,90.30
2022-12-03T10:59:55.774Z,90.05
2022-12-03T11:03:36.359Z,90.06
2022-12-03T11:08:04.096Z,90.03
2022-12-03T11:11:52.421Z,90.30
2022-12-03T11:15:42.782Z,90.48
2022-12-03T11:19:45.648Z,90.60
2022-12-03T11:23:36.149Z,90.42
2022-12-03T11:27:04.742Z,90.26
2022-12-03T11:30:48.841Z,90.53
2022-12-03T11:34:49.184Z,90.77
2022-12-03T11:38:50.867Z,90.99
2022-12-03T11:42:39.468Z,90.93
2022-12-03T11:46:09.637Z,90.86
2022-12-03T11:49:46.880Z,90.85
2022-12-03T11:53:21.274Z,90.84
2022-12-03T11:57:33.098Z,91.22
2022-12-03T12:01:15.350Z,91.37
2022-12-03T12:04:38.103Z,91.31
2022-12-03T12:08:19.811Z,90.74
2022-12-03T12:11:52.696Z,90.59
2022-12-03T12:16:08.270Z,90.14
2022-12-03T12:19:40.501Z,89.79
2022-12-03T12:23:34.261Z,89.83
2022-12-03T12:27:12.024Z,89.92
2022-12-03T12:30:35.190Z,89.96
2022-12-03T12:34:12.919Z,90.23
2022-12-03T12:37:59.042Z,90.30
2022-12-03T12:41:27.652Z,90.18
2022-12-03T12:45:29.669Z,90.11
2022-12-03T12:48:55.205Z,89.97
2022-12-03T12:52:29.426Z,89.85
2022-12-03T12:56:09.492Z,89.98
2022-12-03T13:00:05.331Z,89.84
2022-12-03T13:03:33.096Z,89.66
2022-12-03T13:07:25.451Z,89.94
2022-12-03T13:10:59.993Z,90.31
2022-12-03T13:14:30.289Z,90.45
2022-12-03T13:18:20.654Z,90.42
2022-12-03T13:22:21.880Z,90.38
2022-12-03T13:26:00.586Z,90.27
2022-12-03T13:29:28.137Z,90.07
2022-12-03T13:33:26.770Z,90.07
2022-12-03T13:36:57.999Z,90.09
2022-12-03T13:40:43.331Z,90.11
2022-12-03T13:44:19.660Z,90.47
2022-12-03T13:47:48.783Z,90.58
2022-12-03T13:51:27.097Z,90.56
2022-12-03T13:55:07.358Z,90.64
2022-12-03T13:58:40.582Z,90.72
2022-12-03T14:02:17.479Z,90.46
2022-12-03T14:05:54.730Z,90.31
2022-12-03T14:09:34.998Z,90.00
2022-12-03T14:13:31.286Z,90.01
2022-12-03T14:16:59.716Z,90.09
2022-12-03T14:21:02.438Z,90.23
2022-12-03T14:24:24.997Z,90.38
2022-12-03T14:28:04.065Z,90.71
2022-12-03T14:32:01.988Z,90.67
2022-12-03T14:35:24.066Z,90.79
2022-12-03T14:39:12.605Z,90.74
2022-12-03T14:43:04.659Z,90.48
2022-12-03T14:46:27.488Z,90.25
2022-12-03T14:50:23.111Z,90.14
2022-12-03T14:53:44.580Z,90.47
2022-12-03T14:57:26.296Z,90.61
2022-12-03T15:01:18.984Z,90.96
2022-12-03T15:04:41.187Z,91.33
2022-12-03T15:08:18.361Z,91.20
2022-12-03T15:11:56.119Z,90.84
2022-12-03T15:15:33.689Z,90.69
2022-12-03T15:20:07.752Z,90.54
2022-12-03T15:23:49.255Z,90.49
2022-12-03T15:27:11.099Z,90.38
2022-12-03T15:30:49.821Z,90.61
2022-12-03T15:34:31.109Z,90.69
2022-12-03T15:42:22.565Z,91.20
2022-12-03T15:45:44.913Z,91.40
2022-12-03T15:49:41.346Z,91.60
2022-12-03T15:53:21.797Z,91.43
2022-12-03T15:57:03.541Z,91.30
2022-12-03T16:00:44.417Z,91.29
2022-12-03T16:04:06.205Z,91.04
2022-12-03T16:07:44.032Z,91.15
2022-12-03T16:11:34.918Z,91.52
2022-12-03T16:14:59.176Z,91.66
2022-12-03T16:18:57.296Z,91.79
2022-12-03T16:22:19.497Z,91.83
2022-12-03T16:26:02.276Z,92.07
2022-12-03T16:29:35.777Z,91.76
2022-12-03T16:33:24.061Z,91.65
2022-12-03T16:37:14.219Z,91.61
2022-12-03T16:40:52.859Z,91.38
2022-12-03T16:45:27.787Z,91.40
2022-12-03T16:49:16.963Z,91.66
2022-12-03T16:57:07.533Z,91.92
2022-12-03T17:00:29.205Z,92.13
2022-12-03T17:04:09.706Z,92.06
2022-12-03T17:08:03.366Z,91.87
2022-12-03T17:11:25.477Z,91.81
2022-12-03T17:15:22.052Z,91.64
2022-12-03T17:19:02.828Z,91.45
2022-12-03T17:22:24.892Z,91.56
2022-12-03T17:26:21.472Z,91.65
2022-12-03T17:29:45.235Z,91.74
2022-12-03T17:33:22.916Z,92.00
2022-12-03T17:37:19.239Z,92.02
2022-12-03T17:40:40.780Z,91.85
2022-12-03T17:44:21.171Z,91.81
2022-12-03T17:47:56.020Z,91.58
2022-12-03T17:51:33.763Z,91.80
2022-12-03T17:55:17.635Z,91.86
2022-12-03T17:59:08.347Z,92.03
2022-12-03T18:02:29.777Z,92.11
2022-12-03T18:06:07.834Z,92.27
2022-12-03T18:09:45.185Z,92.32
2022-12-03T18:13:22.825Z,92.32
2022-12-03T18:17:00.614Z,92.36
2022-12-03T18:20:38.422Z,91.98
2022-12-03T18:24:35.030Z,92.05
2022-12-03T18:28:16.160Z,92.16
2022-12-03T18:31:57.009Z,92.44
2022-12-03T18:35:18.913Z,92.76
2022-12-03T18:38:58.527Z,92.87
2022-12-03T18:42:54.740Z,92.70
2022-12-03T18:46:52.949Z,92.61
2022-12-03T18:50:15.316Z,92.40
2022-12-03T18:54:13.067Z,92.37
2022-12-03T18:57:53.859Z,92.42
2022-12-03T19:01:19.925Z,92.58
2022-12-03T19:05:11.882Z,92.84
2022-12-03T19:08:53.859Z,93.05
2022-12-03T19:12:16.803Z,93.13
2022-12-03T19:15:55.271Z,93.06
2022-12-03T19:19:49.681Z,93.02
2022-12-03T19:23:30.614Z,92.79
2022-12-03T19:26:54.811Z,92.74
2022-12-03T19:30:30.252Z,92.70
2022-12-03T19:34:07.761Z,92.74
2022-12-03T19:38:04.463Z,93.03
2022-12-03T19:41:30.545Z,93.12
2022-12-03T19:45:04.665Z,93.15
2022-12-03T19:48:42.359Z,93.15
2022-12-03T19:52:19.464Z,92.75
2022-12-03T19:56:12.450Z,92.88
2022-12-03T19:59:34.960Z,92.85
2022-12-03T20:03:12.739Z,92.71
2022-12-03T20:06:50.403Z,92.94
2022-12-03T20:10:28.126Z,92.95
2022-12-03T20:14:08.726Z,93.14
2022-12-03T20:17:43.436Z,93.28
2022-12-03T20:21:21.180Z,93.13
2022-12-03T20:24:58.909Z,93.02
2022-12-03T20:28:56.786Z,93.01
2022-12-03T20:32:18.318Z,93.09
2022-12-03T20:35:57.269Z,93.17
2022-12-03T20:39:35.420Z,93.30
2022-12-03T20:43:11.155Z,93.12
2022-12-03T20:46:50.190Z,92.87
2022-12-03T20:50:45.383Z,92.93
2022-12-03T20:54:25.867Z,92.66
2022-12-03T20:57:47.753Z,92.81
2022-12-03T21:01:27.359Z,93.06
2022-12-03T21:05:22.195Z,93.19
2022-12-03T21:08:49.997Z,93.15
2022-12-03T21:12:21.891Z,93.26
2022-12-03T21:16:08.641Z,92.98
2022-12-03T21:19:37.920Z,93.07
2022-12-03T21:23:14.870Z,92.86
2022-12-03T21:26:54.879Z,92.97
2022-12-03T21:30:30.238Z,93.21
2022-12-03T21:34:08.751Z,93.35
2022-12-03T21:38:04.396Z,93.61
2022-12-03T21:41:26.708Z,93.54
2022-12-03T21:45:24.424Z,93.38
2022-12-03T21:49:05.110Z,93.55
2022-12-03T21:52:45.816Z,93.49
2022-12-03T21:56:13.686Z,93.64
2022-12-03T21:59:45.286Z,93.78
2022-12-03T22:03:42.731Z,93.78
2022-12-03T22:07:04.927Z,93.54
2022-12-03T22:10:42.429Z,93.48
2022-12-03T22:14:20.909Z,93.26
2022-12-03T22:17:57.537Z,93.05
2022-12-03T22:21:35.681Z,93.18
2022-12-03T22:25:13.014Z,93.35
2022-12-03T22:29:11.046Z,93.54
2022-12-03T22:32:33.036Z,93.73
2022-12-03T22:36:29.756Z,93.84
2022-12-03T22:40:10.648Z,93.83
2022-12-03T22:43:32.612Z,93.65
2022-12-03T22:47:10.249Z,93.54
2022-12-03T22:50:48.581Z,93.59
2022-12-03T22:54:25.599Z,93.73
2022-12-03T22:58:04.443Z,93.71
2022-12-03T23:01:41.671Z,93.87
2022-12-03T23:05:39.160Z,93.72
2022-12-03T23:09:01.464Z,93.69
2022-12-03T23:12:38.628Z,93.54
2022-12-03T23:16:19.257Z,93.33
2022-12-03T23:19:55.597Z,93.58
2022-12-03T23:23:31.714Z,93.66
2022-12-03T23:27:09.460Z,93.89
2022-12-03T23:30:47.192Z,93.88
2022-12-03T23:34:24.986Z,93.88
2022-12-03T23:38:02.555Z,93.71
2022-12-03T23:41:59.029Z,93.52
2022-12-03T23:45:20.860Z,93.74
2022-12-03T23:48:59.433Z,93.89
2022-12-03T23:52:36.208Z,93.96
2022-12-03T23:56:32.786Z,94.15
